Hornsby, Illinois
Current Conditions -  °F | °C
As of 6:15 AM on Monday 26 Jan 2015 (Local Time) from K3LF Reporting Station
Clear Clear  
Wind Chill: 15°   Ceiling: Unl
Heat Index: 23°   Visibility: 10mi
Dew Point: 19°   Wind: 7mph
Humidity: 84%   Direction: 300°WNW
Pressure: 30.01"   Gusts: NA
Location:  39.1865°N, 89.679°W
Report Text: K3LF 261215Z AUTO 30006KT 10SM CLR M05/M07 A3001 RMK AO2 T10501073
Loading
Personal Weather Stations






























Interactive Weather Map New forecast layout! Learn more

10-Day Weather Forecast

Advertisements
Track Severe Weather on mobile